sensor_id;sensor_type;location;lat;lon;timestamp;P1;durP1;ratioP1;P2;durP2;ratioP2
77168;SDS011;66281;45.114;20.730;2023-04-24T00:07:13;10.70;;;4.93;;
77168;SDS011;66281;45.114;20.730;2023-04-24T00:17:14;9.33;;;5.13;;
77168;SDS011;66281;45.114;20.730;2023-04-24T00:27:15;7.23;;;4.83;;
77168;SDS011;66281;45.114;20.730;2023-04-24T00:37:16;10.23;;;5.73;;
77168;SDS011;66281;45.114;20.730;2023-04-24T00:47:18;6.47;;;5.65;;
77168;SDS011;66281;45.114;20.730;2023-04-24T00:57:19;11.20;;;5.10;;
77168;SDS011;66281;45.114;20.730;2023-04-24T01:07:20;7.43;;;5.90;;
77168;SDS011;66281;45.114;20.730;2023-04-24T01:17:20;9.40;;;5.57;;
77168;SDS011;66281;45.114;20.730;2023-04-24T01:27:21;6.10;;;5.23;;
77168;SDS011;66281;45.114;20.730;2023-04-24T01:37:22;6.73;;;5.83;;
77168;SDS011;66281;45.114;20.730;2023-04-24T01:47:23;6.88;;;5.28;;
77168;SDS011;66281;45.114;20.730;2023-04-24T01:57:24;6.93;;;4.70;;
77168;SDS011;66281;45.114;20.730;2023-04-24T02:07:25;6.37;;;4.60;;
77168;SDS011;66281;45.114;20.730;2023-04-24T02:17:26;8.90;;;5.60;;
77168;SDS011;66281;45.114;20.730;2023-04-24T02:27:27;6.17;;;5.07;;
77168;SDS011;66281;45.114;20.730;2023-04-24T02:37:27;7.53;;;4.75;;
77168;SDS011;66281;45.114;20.730;2023-04-24T02:47:28;6.80;;;5.30;;
77168;SDS011;66281;45.114;20.730;2023-04-24T02:57:28;8.48;;;6.32;;
77168;SDS011;66281;45.114;20.730;2023-04-24T03:07:29;8.97;;;6.27;;
77168;SDS011;66281;45.114;20.730;2023-04-24T03:17:29;8.03;;;5.80;;
77168;SDS011;66281;45.114;20.730;2023-04-24T03:27:30;6.13;;;5.27;;
77168;SDS011;66281;45.114;20.730;2023-04-24T03:37:35;9.30;;;5.33;;
77168;SDS011;66281;45.114;20.730;2023-04-24T03:47:55;7.47;;;5.28;;
77168;SDS011;66281;45.114;20.730;2023-04-24T03:57:56;9.23;;;5.77;;
77168;SDS011;66281;45.114;20.730;2023-04-24T04:07:57;10.90;;;5.27;;
77168;SDS011;66281;45.114;20.730;2023-04-24T04:17:58;29.73;;;5.97;;
77168;SDS011;66281;45.114;20.730;2023-04-24T04:27:59;5.97;;;5.20;;
77168;SDS011;66281;45.114;20.730;2023-04-24T04:38:00;8.40;;;5.90;;
77168;SDS011;66281;45.114;20.730;2023-04-24T04:48:27;16.27;;;8.50;;
77168;SDS011;66281;45.114;20.730;2023-04-24T04:58:30;9.37;;;7.00;;
77168;SDS011;66281;45.114;20.730;2023-04-24T05:08:34;13.83;;;9.13;;
77168;SDS011;66281;45.114;20.730;2023-04-24T05:18:35;6.95;;;5.68;;
77168;SDS011;66281;45.114;20.730;2023-04-24T05:28:36;22.03;;;11.77;;
77168;SDS011;66281;45.114;20.730;2023-04-24T05:38:41;11.53;;;7.87;;
77168;SDS011;66281;45.114;20.730;2023-04-24T05:48:42;23.37;;;13.20;;
77168;SDS011;66281;45.114;20.730;2023-04-24T05:58:43;14.60;;;7.50;;
77168;SDS011;66281;45.114;20.730;2023-04-24T06:08:43;13.30;;;8.77;;
77168;SDS011;66281;45.114;20.730;2023-04-24T06:18:45;6.83;;;6.03;;
77168;SDS011;66281;45.114;20.730;2023-04-24T06:28:46;6.83;;;5.87;;
77168;SDS011;66281;45.114;20.730;2023-04-24T06:38:46;9.38;;;7.05;;
77168;SDS011;66281;45.114;20.730;2023-04-24T06:48:47;12.13;;;8.03;;
77168;SDS011;66281;45.114;20.730;2023-04-24T06:58:48;8.63;;;6.67;;
77168;SDS011;66281;45.114;20.730;2023-04-24T07:08:49;13.13;;;9.47;;
77168;SDS011;66281;45.114;20.730;2023-04-24T13:00:47;25.45;;;16.20;;
77168;SDS011;66281;45.114;20.730;2023-04-24T13:10:48;16.43;;;12.80;;
77168;SDS011;66281;45.114;20.730;2023-04-24T13:20:49;16.97;;;11.43;;
77168;SDS011;66281;45.114;20.730;2023-04-24T13:30:51;12.73;;;10.03;;
77168;SDS011;66281;45.114;20.730;2023-04-24T13:40:51;12.67;;;9.70;;
77168;SDS011;66281;45.114;20.730;2023-04-24T13:50:53;17.23;;;9.67;;
77168;SDS011;66281;45.114;20.730;2023-04-24T14:00:53;16.15;;;10.32;;
77168;SDS011;66281;45.114;20.730;2023-04-24T14:10:54;13.90;;;10.05;;
77168;SDS011;66281;45.114;20.730;2023-04-24T14:20:55;19.07;;;12.67;;
77168;SDS011;66281;45.114;20.730;2023-04-24T14:30:56;18.58;;;11.13;;
77168;SDS011;66281;45.114;20.730;2023-04-24T14:40:57;17.83;;;11.05;;
77168;SDS011;66281;45.114;20.730;2023-04-24T14:50:58;19.63;;;10.83;;
77168;SDS011;66281;45.114;20.730;2023-04-24T15:00:58;17.83;;;10.27;;
77168;SDS011;66281;45.114;20.730;2023-04-24T15:11:00;11.97;;;8.60;;
77168;SDS011;66281;45.114;20.730;2023-04-24T15:21:01;11.57;;;6.67;;
77168;SDS011;66281;45.114;20.730;2023-04-24T15:31:02;10.73;;;7.73;;
77168;SDS011;66281;45.114;20.730;2023-04-24T15:41:03;18.35;;;12.80;;
77168;SDS011;66281;45.114;20.730;2023-04-24T15:51:04;24.83;;;16.33;;
77168;SDS011;66281;45.114;20.730;2023-04-24T16:01:04;21.92;;;12.63;;
77168;SDS011;66281;45.114;20.730;2023-04-24T16:11:05;32.10;;;16.37;;
77168;SDS011;66281;45.114;20.730;2023-04-24T16:21:06;23.88;;;14.23;;
77168;SDS011;66281;45.114;20.730;2023-04-24T16:31:07;10.45;;;8.02;;
77168;SDS011;66281;45.114;20.730;2023-04-24T16:41:08;12.90;;;8.50;;
77168;SDS011;66281;45.114;20.730;2023-04-24T16:51:09;14.80;;;9.60;;
77168;SDS011;66281;45.114;20.730;2023-04-24T17:01:09;8.77;;;7.32;;
77168;SDS011;66281;45.114;20.730;2023-04-24T17:11:10;10.07;;;7.50;;
77168;SDS011;66281;45.114;20.730;2023-04-24T17:21:10;12.27;;;9.40;;
77168;SDS011;66281;45.114;20.730;2023-04-24T17:31:12;38.70;;;25.03;;
77168;SDS011;66281;45.114;20.730;2023-04-24T17:41:12;20.77;;;13.18;;
77168;SDS011;66281;45.114;20.730;2023-04-24T17:51:14;11.07;;;9.07;;
77168;SDS011;66281;45.114;20.730;2023-04-24T18:01:14;16.80;;;11.52;;
77168;SDS011;66281;45.114;20.730;2023-04-24T18:11:15;14.30;;;10.40;;
77168;SDS011;66281;45.114;20.730;2023-04-24T18:21:15;16.77;;;12.43;;
77168;SDS011;66281;45.114;20.730;2023-04-24T18:31:17;10.98;;;8.50;;
77168;SDS011;66281;45.114;20.730;2023-04-24T18:41:17;9.57;;;7.57;;
77168;SDS011;66281;45.114;20.730;2023-04-24T18:51:19;9.13;;;7.20;;
77168;SDS011;66281;45.114;20.730;2023-04-24T19:01:20;11.03;;;7.47;;
77168;SDS011;66281;45.114;20.730;2023-04-24T19:11:22;9.45;;;7.38;;
77168;SDS011;66281;45.114;20.730;2023-04-24T19:21:22;9.37;;;6.70;;
77168;SDS011;66281;45.114;20.730;2023-04-24T19:31:26;7.90;;;6.85;;
77168;SDS011;66281;45.114;20.730;2023-04-24T19:41:27;10.00;;;6.60;;
77168;SDS011;66281;45.114;20.730;2023-04-24T19:51:27;9.82;;;6.32;;
77168;SDS011;66281;45.114;20.730;2023-04-24T20:01:28;8.25;;;6.15;;
77168;SDS011;66281;45.114;20.730;2023-04-24T20:11:29;7.30;;;5.70;;
77168;SDS011;66281;45.114;20.730;2023-04-24T20:21:29;7.75;;;5.05;;
77168;SDS011;66281;45.114;20.730;2023-04-24T20:31:30;5.60;;;4.53;;
77168;SDS011;66281;45.114;20.730;2023-04-24T20:41:31;6.67;;;4.63;;
77168;SDS011;66281;45.114;20.730;2023-04-24T20:51:33;5.83;;;4.53;;
77168;SDS011;66281;45.114;20.730;2023-04-24T21:01:33;5.77;;;4.93;;
77168;SDS011;66281;45.114;20.730;2023-04-24T21:11:34;8.27;;;4.90;;
77168;SDS011;66281;45.114;20.730;2023-04-24T21:21:34;7.37;;;5.13;;
77168;SDS011;66281;45.114;20.730;2023-04-24T21:31:36;6.43;;;5.28;;
77168;SDS011;66281;45.114;20.730;2023-04-24T21:41:36;7.33;;;5.17;;
77168;SDS011;66281;45.114;20.730;2023-04-24T21:51:37;7.03;;;4.97;;
77168;SDS011;66281;45.114;20.730;2023-04-24T22:01:38;9.33;;;6.73;;
77168;SDS011;66281;45.114;20.730;2023-04-24T22:11:39;8.25;;;6.00;;
77168;SDS011;66281;45.114;20.730;2023-04-24T22:21:39;8.87;;;5.40;;
77168;SDS011;66281;45.114;20.730;2023-04-24T22:31:40;8.10;;;6.63;;
77168;SDS011;66281;45.114;20.730;2023-04-24T22:41:41;8.77;;;6.10;;
77168;SDS011;66281;45.114;20.730;2023-04-24T22:51:42;10.18;;;7.40;;
77168;SDS011;66281;45.114;20.730;2023-04-24T23:01:42;13.17;;;8.23;;
77168;SDS011;66281;45.114;20.730;2023-04-24T23:11:43;15.77;;;10.18;;
77168;SDS011;66281;45.114;20.730;2023-04-24T23:21:44;17.80;;;10.63;;
77168;SDS011;66281;45.114;20.730;2023-04-24T23:31:45;16.77;;;11.45;;
77168;SDS011;66281;45.114;20.730;2023-04-24T23:41:45;17.23;;;12.57;;
77168;SDS011;66281;45.114;20.730;2023-04-24T23:51:46;23.95;;;15.38;;
